Terminal Aerodrome Forecast
Issued by NWS

Home | Current Version | Previous Version | Text Only | Print | Product List | Glossary On
Versions: 1 2 3 4 5 6 7 8 9 10 11 12 13 14 15 16 17 18 19 20 21 22 23 24 25 26 27
000
FTUS42 KCAE 280200 AAA
TAFOGB
TAF AMD
KOGB 280231Z 2803/2824 VRB03KT P6SM SCT150
     FM280900 VRB03KT 4SM BR OVC030
     FM281500 VRB03KT P6SM VCSH SCT008 OVC015=

USA.gov is the U.S. government's official web portal to all federal, state and local government web resources and services.